createdAt,value
2018-08-25T00:00:05.244Z,100.00
2018-08-25T00:01:28.552Z,100.00
2018-08-25T00:02:55.866Z,100.00
2018-08-25T00:04:23.532Z,100.00
2018-08-25T00:05:51.006Z,100.00
2018-08-25T00:07:22.454Z,100.00
2018-08-25T00:08:45.911Z,100.00
2018-08-25T00:10:11.805Z,100.00
2018-08-25T00:11:39.405Z,100.00
2018-08-25T00:13:11.056Z,100.00
2018-08-25T00:14:38.250Z,100.00
2018-08-25T00:16:05.625Z,100.00
2018-08-25T00:17:32.315Z,100.00
2018-08-25T00:18:55.792Z,100.00
2018-08-25T00:20:27.265Z,100.00
2018-08-25T00:21:49.953Z,100.00
2018-08-25T00:23:21.553Z,100.00
2018-08-25T00:24:47.486Z,100.00
2018-08-25T00:26:11.069Z,100.00
2018-08-25T00:27:42.601Z,100.00
2018-08-25T00:29:08.777Z,100.00
2018-08-25T00:30:32.209Z,100.00
2018-08-25T00:31:59.436Z,100.00
2018-08-25T00:33:26.709Z,100.00
2018-08-25T00:34:54.080Z,100.00
2018-08-25T00:36:24.859Z,100.00
2018-08-25T00:37:48.535Z,100.00
2018-08-25T00:39:15.893Z,100.00
2018-08-25T00:40:43.399Z,100.00
2018-08-25T00:42:10.936Z,100.00
2018-08-25T00:43:38.362Z,100.00
2018-08-25T00:45:05.815Z,100.00
2018-08-25T00:46:33.175Z,100.00
2018-08-25T00:48:03.823Z,100.00
2018-08-25T00:49:30.276Z,100.00
2018-08-25T00:50:57.372Z,100.00
2018-08-25T00:52:24.712Z,100.00
2018-08-25T00:53:52.255Z,100.00
2018-08-25T00:55:19.674Z,100.00
2018-08-25T00:56:42.932Z,100.00
2018-08-25T00:58:10.434Z,100.00
2018-08-25T00:59:41.973Z,100.00
2018-08-25T01:01:05.326Z,100.00
2018-08-25T01:02:36.734Z,100.00
2018-08-25T01:04:04.110Z,100.00
2018-08-25T01:05:27.400Z,100.00
2018-08-25T01:06:58.879Z,100.00
2018-08-25T01:08:26.272Z,100.00
2018-08-25T01:09:53.615Z,100.00
2018-08-25T01:11:21.082Z,100.00
2018-08-25T01:12:44.386Z,100.00
2018-08-25T01:14:15.837Z,100.00
2018-08-25T01:15:39.295Z,100.00
2018-08-25T01:17:09.606Z,100.00
2018-08-25T01:18:31.877Z,100.00
2018-08-25T01:19:59.254Z,100.00
2018-08-25T01:21:26.705Z,100.00
2018-08-25T01:22:58.133Z,100.00
2018-08-25T01:24:25.524Z,100.00
2018-08-25T01:25:52.590Z,100.00
2018-08-25T01:27:17.979Z,100.00
2018-08-25T01:28:41.197Z,100.00
2018-08-25T01:30:13.681Z,100.00
2018-08-25T01:31:36.210Z,100.00
2018-08-25T01:33:03.580Z,100.00
2018-08-25T01:34:31.061Z,100.00
2018-08-25T01:36:02.254Z,100.00
2018-08-25T01:37:24.324Z,100.00
2018-08-25T01:38:55.137Z,100.00
2018-08-25T01:40:21.227Z,100.00
2018-08-25T01:41:44.551Z,100.00
2018-08-25T01:43:16.195Z,100.00
2018-08-25T01:44:39.315Z,100.00
2018-08-25T01:46:10.836Z,100.00
2018-08-25T01:47:36.724Z,100.00
2018-08-25T01:49:00.202Z,100.00
2018-08-25T01:50:26.395Z,100.00
2018-08-25T01:51:52.097Z,100.00
2018-08-25T01:53:19.305Z,100.00
2018-08-25T01:54:45.365Z,100.00
2018-08-25T01:56:12.778Z,100.00
2018-08-25T01:57:44.093Z,100.00
2018-08-25T01:59:07.412Z,100.00
2018-08-25T02:00:39.978Z,100.00
2018-08-25T02:02:05.132Z,100.00
2018-08-25T02:03:32.580Z,100.00
2018-08-25T02:04:59.888Z,100.00
2018-08-25T02:06:27.237Z,100.00
2018-08-25T02:07:50.640Z,100.00
2018-08-25T02:09:16.455Z,100.00
2018-08-25T02:10:43.784Z,100.00
2018-08-25T02:12:11.431Z,100.00
2018-08-25T02:13:42.728Z,100.00
2018-08-25T02:15:10.041Z,100.00
2018-08-25T02:16:32.228Z,100.00
2018-08-25T02:18:02.453Z,100.00
2018-08-25T02:19:28.869Z,100.00
2018-08-25T02:20:55.424Z,100.00
2018-08-25T02:22:21.557Z,100.00
2018-08-25T02:23:44.952Z,100.00
2018-08-25T02:25:12.429Z,100.00
2018-08-25T02:26:38.652Z,100.00
2018-08-25T02:28:05.990Z,100.00
2018-08-25T02:29:33.447Z,100.00
2018-08-25T02:31:00.308Z,100.00
2018-08-25T02:32:27.844Z,100.00
2018-08-25T02:33:58.440Z,100.00
2018-08-25T02:35:24.931Z,100.00
2018-08-25T02:36:52.126Z,100.00
2018-08-25T02:38:19.526Z,100.00
2018-08-25T02:39:41.502Z,100.00
2018-08-25T02:41:07.471Z,100.00
2018-08-25T02:42:34.776Z,100.00
2018-08-25T02:44:06.217Z,100.00
2018-08-25T02:45:33.517Z,100.00
2018-08-25T02:46:56.791Z,100.00
2018-08-25T02:48:23.371Z,100.00
2018-08-25T02:49:54.827Z,100.00
2018-08-25T02:51:18.501Z,100.00
2018-08-25T02:52:45.603Z,100.00
2018-08-25T02:54:14.760Z,100.00
2018-08-25T02:55:41.966Z,100.00
2018-08-25T02:57:09.324Z,100.00
2018-08-25T02:58:31.417Z,100.00
2018-08-25T02:59:58.527Z,100.00
2018-08-25T03:01:28.992Z,100.00
2018-08-25T03:02:51.593Z,100.00
2018-08-25T03:04:18.698Z,100.00
2018-08-25T03:05:51.099Z,100.00
2018-08-25T03:07:13.290Z,100.00
2018-08-25T03:08:40.714Z,100.00
2018-08-25T03:10:08.111Z,100.00
2018-08-25T03:11:39.562Z,100.00
2018-08-25T03:13:03.048Z,100.00
2018-08-25T03:14:34.510Z,100.00
2018-08-25T03:16:02.056Z,100.00
2018-08-25T03:17:28.198Z,100.00
2018-08-25T03:18:54.932Z,100.00
2018-08-25T03:20:22.288Z,100.00
2018-08-25T03:21:44.410Z,100.00
2018-08-25T03:23:11.871Z,100.00
2018-08-25T03:24:39.211Z,100.00
2018-08-25T03:26:06.731Z,100.00
2018-08-25T03:27:34.211Z,100.00
2018-08-25T03:29:01.632Z,100.00
2018-08-25T03:30:28.976Z,100.00
2018-08-25T03:31:55.335Z,100.00
2018-08-25T03:33:21.761Z,100.00
2018-08-25T03:34:49.044Z,100.00
2018-08-25T03:36:20.503Z,100.00
2018-08-25T03:37:48.920Z,100.00
2018-08-25T03:39:14.163Z,100.00
2018-08-25T03:40:37.492Z,100.00
2018-08-25T03:42:08.842Z,100.00
2018-08-25T03:43:36.196Z,100.00
2018-08-25T03:45:03.704Z,100.00
2018-08-25T03:46:29.739Z,100.00
2018-08-25T03:47:57.270Z,100.00
2018-08-25T03:49:20.632Z,100.00
2018-08-25T03:50:47.940Z,100.00
2018-08-25T03:52:15.502Z,100.00
2018-08-25T03:53:42.618Z,100.00
2018-08-25T03:55:12.735Z,100.00
2018-08-25T03:56:39.898Z,100.00
2018-08-25T03:58:01.842Z,100.00
2018-08-25T03:59:29.292Z,100.00
2018-08-25T04:00:56.715Z,100.00
2018-08-25T04:02:27.340Z,100.00
2018-08-25T04:03:54.828Z,100.00
2018-08-25T04:05:17.981Z,100.00
2018-08-25T04:06:49.516Z,100.00
2018-08-25T04:08:15.810Z,100.00
2018-08-25T04:09:39.191Z,100.00
2018-08-25T04:11:06.591Z,100.00
2018-08-25T04:12:38.081Z,100.00
2018-08-25T04:14:01.252Z,100.00
2018-08-25T04:15:32.750Z,100.00
2018-08-25T04:16:55.870Z,100.00
2018-08-25T04:18:26.352Z,100.00
2018-08-25T04:19:48.748Z,100.00
2018-08-25T04:21:15.059Z,100.00
2018-08-25T04:22:45.095Z,100.00
2018-08-25T04:24:07.021Z,100.00
2018-08-25T04:25:34.362Z,100.00
2018-08-25T04:27:00.635Z,100.00
2018-08-25T04:28:27.931Z,100.00
2018-08-25T04:29:55.458Z,100.00
2018-08-25T04:31:22.533Z,100.00
2018-08-25T04:32:53.639Z,100.00
2018-08-25T04:34:16.015Z,100.00
2018-08-25T04:35:43.378Z,100.00
2018-08-25T04:37:14.895Z,100.00
2018-08-25T04:38:38.237Z,100.00
2018-08-25T04:41:33.068Z,100.00
2018-08-25T04:43:04.522Z,100.00
2018-08-25T04:44:27.728Z,100.00
2018-08-25T04:45:55.257Z,100.00
2018-08-25T04:47:22.719Z,100.00
2018-08-25T04:48:49.757Z,100.00
2018-08-25T04:50:21.220Z,100.00
2018-08-25T04:51:48.512Z,100.00
2018-08-25T04:53:15.822Z,100.00
2018-08-25T04:54:39.463Z,100.00
2018-08-25T04:56:10.785Z,100.00
2018-08-25T04:57:38.036Z,100.00
2018-08-25T04:59:01.354Z,100.00
2018-08-25T05:00:31.742Z,100.00
2018-08-25T05:01:58.751Z,100.00
2018-08-25T05:03:26.064Z,100.00
2018-08-25T05:04:51.952Z,100.00
2018-08-25T05:06:19.254Z,100.00
2018-08-25T05:07:42.654Z,100.00
2018-08-25T05:09:08.690Z,100.00
2018-08-25T05:10:39.975Z,100.00
2018-08-25T05:12:03.391Z,100.00
2018-08-25T05:13:34.754Z,100.00
2018-08-25T05:15:02.098Z,100.00
2018-08-25T05:16:28.404Z,100.00
2018-08-25T05:17:55.534Z,100.00
2018-08-25T05:19:18.019Z,100.00
2018-08-25T05:20:45.379Z,100.00
2018-08-25T05:22:13.006Z,100.00
2018-08-25T05:23:40.361Z,100.00
2018-08-25T05:25:11.736Z,100.00
2018-08-25T05:26:39.098Z,100.00
2018-08-25T05:28:06.600Z,100.00
2018-08-25T05:29:33.908Z,100.00
2018-08-25T05:31:01.381Z,100.00
2018-08-25T05:32:24.595Z,100.00
2018-08-25T05:33:51.220Z,100.00
2018-08-25T05:35:18.386Z,100.00
2018-08-25T05:36:45.773Z,100.00
2018-08-25T05:38:17.283Z,100.00
2018-08-25T05:39:39.339Z,100.00
2018-08-25T05:41:10.788Z,100.00
2018-08-25T05:42:38.376Z,100.00
2018-08-25T05:44:01.895Z,100.00
2018-08-25T05:45:31.765Z,100.00
2018-08-25T05:46:55.331Z,100.00
2018-08-25T05:48:26.541Z,100.00
2018-08-25T05:49:53.695Z,100.00
2018-08-25T05:51:17.267Z,100.00
2018-08-25T05:52:43.581Z,100.00
2018-08-25T05:54:16.191Z,100.00
2018-08-25T05:55:37.416Z,100.00
2018-08-25T05:57:08.826Z,100.00
2018-08-25T05:58:32.219Z,100.00
2018-08-25T06:00:03.635Z,100.00
2018-08-25T06:01:27.023Z,100.00
2018-08-25T06:02:59.484Z,100.00
2018-08-25T06:04:25.318Z,100.00
2018-08-25T06:05:52.529Z,100.00
2018-08-25T06:07:14.928Z,100.00
2018-08-25T06:08:46.485Z,100.00
2018-08-25T06:10:09.810Z,100.00
2018-08-25T06:11:41.418Z,100.00
2018-08-25T06:13:03.644Z,100.00
2018-08-25T06:14:31.058Z,100.00
2018-08-25T06:16:02.629Z,100.00
2018-08-25T06:17:29.633Z,100.00
2018-08-25T06:18:52.828Z,100.00
2018-08-25T06:20:20.257Z,100.00
2018-08-25T06:21:51.461Z,100.00
2018-08-25T06:23:14.914Z,100.00
2018-08-25T06:24:46.336Z,100.00
2018-08-25T06:26:14.704Z,100.00
2018-08-25T06:27:40.559Z,100.00
2018-08-25T06:29:07.835Z,100.00
2018-08-25T06:30:31.259Z,100.00
2018-08-25T06:32:02.513Z,100.00
2018-08-25T06:33:30.086Z,100.00
2018-08-25T06:34:57.447Z,100.00
2018-08-25T06:36:20.868Z,100.00
2018-08-25T06:37:48.336Z,100.00
2018-08-25T06:39:16.782Z,100.00
2018-08-25T06:40:45.991Z,100.00
2018-08-25T06:42:09.395Z,100.00
2018-08-25T06:43:37.072Z,100.00
2018-08-25T06:45:08.532Z,100.00
2018-08-25T06:46:35.228Z,100.00
2018-08-25T06:49:27.700Z,100.00
2018-08-25T06:50:50.607Z,100.00
2018-08-25T06:52:25.187Z,100.00
2018-08-25T06:53:48.318Z,100.00
2018-08-25T06:55:11.777Z,100.00
2018-08-25T06:58:10.389Z,100.00
2018-08-25T06:59:36.920Z,100.00
2018-08-25T07:01:04.190Z,100.00
2018-08-25T07:02:27.663Z,100.00
2018-08-25T07:03:59.203Z,100.00
2018-08-25T07:05:26.575Z,100.00
2018-08-25T07:06:54.677Z,100.00
2018-08-25T07:08:19.796Z,100.00
2018-08-25T07:09:47.415Z,100.00
2018-08-25T07:11:14.765Z,100.00
2018-08-25T07:12:42.368Z,100.00
2018-08-25T07:14:09.717Z,100.00
2018-08-25T07:15:37.150Z,100.00
2018-08-25T07:17:03.536Z,100.00
2018-08-25T07:18:30.981Z,100.00
2018-08-25T07:19:54.482Z,100.00
2018-08-25T07:21:25.931Z,100.00
2018-08-25T07:22:49.290Z,100.00
2018-08-25T07:24:16.785Z,100.00
2018-08-25T07:25:43.301Z,100.00
2018-08-25T07:27:14.787Z,100.00
2018-08-25T07:28:42.162Z,100.00
2018-08-25T07:30:05.734Z,100.00
2018-08-25T07:31:33.231Z,100.00
2018-08-25T07:33:04.640Z,100.00
2018-08-25T07:34:27.192Z,100.00
2018-08-25T07:35:54.763Z,100.00
2018-08-25T07:37:25.377Z,100.00
2018-08-25T07:38:48.508Z,100.00
2018-08-25T07:40:20.078Z,100.00
2018-08-25T07:41:47.549Z,100.00
2018-08-25T07:43:14.035Z,100.00
2018-08-25T07:44:41.504Z,100.00
2018-08-25T07:46:05.108Z,100.00
2018-08-25T07:47:32.463Z,100.00
2018-08-25T07:49:00.218Z,100.00
2018-08-25T07:50:27.432Z,100.00
2018-08-25T07:51:54.828Z,100.00
2018-08-25T07:53:26.509Z,100.00
2018-08-25T07:54:53.435Z,100.00
2018-08-25T07:56:20.776Z,100.00
2018-08-25T07:57:47.043Z,100.00
2018-08-25T07:59:13.724Z,100.00
2018-08-25T08:00:37.191Z,100.00
2018-08-25T08:02:04.538Z,100.00
2018-08-25T08:03:35.021Z,100.00
2018-08-25T08:04:58.207Z,99.94
2018-08-25T08:06:29.511Z,99.00
2018-08-25T08:07:52.840Z,98.66
2018-08-25T08:09:20.051Z,99.70
2018-08-25T08:10:47.570Z,99.38
2018-08-25T08:12:19.037Z,99.30
2018-08-25T08:13:42.315Z,100.00
2018-08-25T08:15:13.748Z,97.93
2018-08-25T08:16:41.322Z,97.78
2018-08-25T08:18:04.794Z,98.13
2018-08-25T08:19:30.985Z,96.43
2018-08-25T08:20:58.486Z,91.46
2018-08-25T08:22:30.003Z,89.06
2018-08-25T08:23:57.454Z,88.42
2018-08-25T08:25:24.072Z,89.07
2018-08-25T08:26:51.475Z,85.30
2018-08-25T08:28:14.891Z,85.23
2018-08-25T08:29:45.562Z,85.70
2018-08-25T08:31:09.075Z,86.83
2018-08-25T08:32:39.564Z,86.68
2018-08-25T08:34:02.896Z,86.76
2018-08-25T08:35:30.548Z,88.50
2018-08-25T08:36:57.840Z,89.08
2018-08-25T08:38:25.070Z,88.23
2018-08-25T08:39:52.727Z,87.91
2018-08-25T08:41:19.597Z,87.11
2018-08-25T08:42:47.186Z,86.57
2018-08-25T08:44:18.586Z,86.07
2018-08-25T08:45:41.413Z,85.11
2018-08-25T08:47:13.053Z,86.66
2018-08-25T08:48:40.469Z,86.42
2018-08-25T08:50:04.068Z,85.02
2018-08-25T08:51:31.463Z,86.14
2018-08-25T08:52:59.056Z,86.23
2018-08-25T08:54:26.592Z,87.41
2018-08-25T08:55:53.607Z,87.09
2018-08-25T08:57:20.967Z,87.38
2018-08-25T08:58:52.765Z,86.97
2018-08-25T09:00:19.491Z,87.00
2018-08-25T09:01:46.954Z,88.14
2018-08-25T09:03:10.246Z,86.38
2018-08-25T09:04:41.635Z,86.59
2018-08-25T09:06:09.085Z,86.78
2018-08-25T09:07:32.624Z,87.22
2018-08-25T09:09:03.766Z,84.78
2018-08-25T09:10:31.223Z,83.86
2018-08-25T09:11:55.007Z,83.82
2018-08-25T09:13:26.346Z,83.38
2018-08-25T09:14:52.863Z,85.53
2018-08-25T09:16:20.262Z,84.42
2018-08-25T09:17:47.777Z,86.75
2018-08-25T09:19:14.544Z,86.00
2018-08-25T09:20:37.715Z,86.71
2018-08-25T09:22:08.370Z,85.82
2018-08-25T09:23:30.850Z,85.33
2018-08-25T09:24:57.959Z,83.40
2018-08-25T09:26:29.538Z,83.60
2018-08-25T09:27:52.428Z,83.72
2018-08-25T09:29:23.810Z,81.23
2018-08-25T09:30:51.273Z,81.10
2018-08-25T09:32:19.037Z,80.92
2018-08-25T09:33:42.518Z,80.75
2018-08-25T09:35:14.110Z,80.08
2018-08-25T09:36:42.635Z,79.60
2018-08-25T09:38:09.073Z,80.08
2018-08-25T09:39:32.376Z,79.22
2018-08-25T09:41:03.080Z,78.85
2018-08-25T09:42:26.317Z,78.06
2018-08-25T09:43:53.391Z,78.83
2018-08-25T09:45:20.886Z,77.55
2018-08-25T09:46:51.913Z,78.09
2018-08-25T09:48:18.001Z,78.19
2018-08-25T09:49:41.547Z,78.47
2018-08-25T09:51:08.086Z,77.75
2018-08-25T09:52:35.624Z,79.26
2018-08-25T09:54:03.178Z,78.87
2018-08-25T09:55:30.610Z,78.05
2018-08-25T09:56:58.082Z,78.53
2018-08-25T09:58:29.679Z,78.86
2018-08-25T09:59:56.973Z,78.94
2018-08-25T10:01:23.816Z,79.07
2018-08-25T10:02:47.176Z,81.11
2018-08-25T10:04:18.692Z,79.93
2018-08-25T10:05:46.282Z,79.45
2018-08-25T10:07:12.830Z,80.70
2018-08-25T10:08:39.102Z,79.92
2018-08-25T10:10:06.754Z,79.47
2018-08-25T10:11:30.340Z,79.39
2018-08-25T10:12:57.732Z,79.91
2018-08-25T10:14:25.119Z,80.18
2018-08-25T10:15:52.375Z,80.17
2018-08-25T10:17:19.988Z,78.79
2018-08-25T10:18:47.290Z,77.03
2018-08-25T10:20:18.838Z,76.86
2018-08-25T10:21:42.276Z,77.98
2018-08-25T10:23:13.765Z,77.28
2018-08-25T10:24:36.635Z,76.75
2018-08-25T10:26:03.579Z,75.90
2018-08-25T10:27:34.446Z,76.64
2018-08-25T10:28:57.061Z,77.13
2018-08-25T10:30:24.513Z,76.11
2018-08-25T10:31:52.006Z,75.74
2018-08-25T10:33:19.069Z,76.21
2018-08-25T10:34:50.497Z,76.54
2018-08-25T10:36:13.951Z,76.42
2018-08-25T10:37:45.617Z,75.92
2018-08-25T10:39:13.098Z,75.04
2018-08-25T10:40:39.965Z,74.73
2018-08-25T10:42:03.480Z,74.22
2018-08-25T10:43:31.030Z,73.30
2018-08-25T10:44:58.472Z,72.80
2018-08-25T10:46:25.892Z,72.43
2018-08-25T10:47:53.341Z,73.01
2018-08-25T10:49:24.753Z,73.70
2018-08-25T10:50:48.206Z,73.35
2018-08-25T10:52:15.929Z,71.50
2018-08-25T10:53:47.532Z,72.99
2018-08-25T10:55:11.108Z,72.44
2018-08-25T10:56:38.417Z,71.85
2018-08-25T10:58:06.035Z,70.73
2018-08-25T10:59:33.498Z,71.76
2018-08-25T11:01:04.105Z,72.76
2018-08-25T11:02:27.220Z,73.47
2018-08-25T11:03:54.634Z,71.54
2018-08-25T11:05:25.681Z,72.73
2018-08-25T11:06:52.572Z,71.81
2018-08-25T11:08:15.863Z,72.03
2018-08-25T11:09:43.505Z,72.88
2018-08-25T11:11:14.982Z,71.70
2018-08-25T11:12:37.481Z,72.71
2018-08-25T11:14:08.333Z,72.69
2018-08-25T11:15:30.976Z,72.91
2018-08-25T11:17:02.454Z,72.52
2018-08-25T11:18:29.850Z,71.26
2018-08-25T11:19:52.960Z,71.28
2018-08-25T11:21:20.361Z,71.88
2018-08-25T11:22:47.417Z,71.89
2018-08-25T11:24:15.155Z,72.50
2018-08-25T11:25:42.448Z,71.56
2018-08-25T11:27:09.172Z,71.80
2018-08-25T11:28:35.877Z,72.97
2018-08-25T11:30:03.288Z,73.16
2018-08-25T11:31:34.768Z,74.85
2018-08-25T11:33:02.270Z,74.43
2018-08-25T11:34:25.816Z,75.25
2018-08-25T11:35:53.239Z,76.22
2018-08-25T11:37:20.864Z,87.04
2018-08-25T11:38:52.245Z,90.29
2018-08-25T11:40:18.637Z,95.37
2018-08-25T11:41:47.050Z,100.00
2018-08-25T11:43:09.438Z,100.00
2018-08-25T11:44:37.054Z,100.00
2018-08-25T11:46:08.316Z,100.00
2018-08-25T11:47:31.775Z,100.00
2018-08-25T11:49:03.231Z,100.00
2018-08-25T11:50:30.649Z,100.00
2018-08-25T11:51:58.090Z,100.00
2018-08-25T11:53:25.438Z,100.00
2018-08-25T11:54:52.692Z,100.00
2018-08-25T11:56:16.099Z,100.00
2018-08-25T11:58:51.523Z,100.00
2018-08-25T12:25:39.916Z,100.00
2018-08-25T12:34:45.421Z,100.00
2018-08-25T12:41:12.575Z,100.00
2018-08-25T12:42:34.158Z,100.00
2018-08-25T12:44:00.385Z,100.00
2018-08-25T12:45:27.847Z,100.00
2018-08-25T12:46:55.202Z,100.00
2018-08-25T12:48:22.434Z,100.00
2018-08-25T12:49:53.797Z,100.00
2018-08-25T12:51:17.181Z,100.00
2018-08-25T12:52:44.760Z,100.00
2018-08-25T12:54:12.144Z,100.00
2018-08-25T12:55:39.801Z,100.00
2018-08-25T12:57:07.301Z,100.00
2018-08-25T12:58:34.633Z,100.00
2018-08-25T13:00:05.542Z,100.00
2018-08-25T13:01:28.965Z,100.00
2018-08-25T13:03:00.418Z,100.00
2018-08-25T13:04:23.863Z,100.00
2018-08-25T13:05:55.198Z,100.00
2018-08-25T13:07:18.206Z,100.00
2018-08-25T13:08:49.343Z,100.00
2018-08-25T13:10:15.931Z,100.00
2018-08-25T13:11:43.288Z,100.00
2018-08-25T13:13:11.008Z,100.00
2018-08-25T13:14:34.255Z,100.00
2018-08-25T13:16:05.615Z,100.00
2018-08-25T13:17:33.073Z,100.00
2018-08-25T13:18:56.360Z,100.00
2018-08-25T13:20:27.514Z,100.00
2018-08-25T13:21:51.196Z,100.00
2018-08-25T13:23:22.036Z,100.00
2018-08-25T13:24:45.559Z,100.00
2018-08-25T13:26:13.106Z,100.00
2018-08-25T13:27:44.642Z,100.00
2018-08-25T13:29:07.667Z,100.00
2018-08-25T13:30:38.718Z,100.00
2018-08-25T13:32:09.218Z,100.00
2018-08-25T13:33:33.695Z,100.00
2018-08-25T13:34:57.221Z,100.00
2018-08-25T13:36:28.628Z,100.00
2018-08-25T13:37:55.770Z,100.00
2018-08-25T13:39:18.863Z,100.00
2018-08-25T13:40:46.458Z,100.00
2018-08-25T13:42:17.813Z,100.00
2018-08-25T13:43:45.488Z,100.00
2018-08-25T13:45:08.936Z,100.00
2018-08-25T13:46:40.463Z,100.00
2018-08-25T13:48:03.781Z,100.00
2018-08-25T13:49:35.433Z,100.00
2018-08-25T13:50:58.817Z,100.00
2018-08-25T13:52:30.335Z,100.00
2018-08-25T13:53:53.618Z,100.00
2018-08-25T13:55:20.945Z,100.00
2018-08-25T13:56:48.439Z,100.00
2018-08-25T13:58:15.938Z,100.00
2018-08-25T13:59:43.452Z,100.00
2018-08-25T14:01:10.972Z,100.00
2018-08-25T14:02:42.429Z,100.00
2018-08-25T14:04:09.862Z,100.00
2018-08-25T14:05:37.340Z,100.00
2018-08-25T14:07:04.894Z,100.00
2018-08-25T14:08:28.475Z,100.00
2018-08-25T14:09:59.429Z,100.00
2018-08-25T14:11:22.731Z,100.00
2018-08-25T14:12:50.173Z,100.00
2018-08-25T14:14:17.495Z,100.00
2018-08-25T14:15:48.985Z,100.00
2018-08-25T14:17:16.325Z,100.00
2018-08-25T14:18:42.634Z,100.00
2018-08-25T14:20:06.059Z,100.00
2018-08-25T14:21:37.490Z,100.00
2018-08-25T14:23:00.921Z,100.00
2018-08-25T14:24:31.695Z,100.00
2018-08-25T14:25:54.875Z,100.00
2018-08-25T14:27:26.528Z,100.00
2018-08-25T14:28:53.501Z,100.00
2018-08-25T14:30:20.887Z,100.00
2018-08-25T14:31:44.255Z,100.00
2018-08-25T14:33:11.791Z,100.00
2018-08-25T14:34:42.564Z,100.00
2018-08-25T14:36:10.199Z,100.00
2018-08-25T14:37:32.637Z,100.00
2018-08-25T14:39:00.111Z,100.00
2018-08-25T14:40:27.522Z,100.00
2018-08-25T14:41:58.042Z,100.00
2018-08-25T14:43:25.554Z,100.00
2018-08-25T14:44:48.359Z,100.00
2018-08-25T14:46:15.824Z,100.00
2018-08-25T14:47:43.267Z,100.00
2018-08-25T14:49:14.789Z,100.00
2018-08-25T14:50:38.251Z,100.00
2018-08-25T14:52:05.703Z,100.00
2018-08-25T14:53:37.120Z,100.00
2018-08-25T14:55:04.495Z,100.00
2018-08-25T14:56:27.960Z,100.00
2018-08-25T14:57:54.584Z,100.00
2018-08-25T14:59:25.760Z,100.00
2018-08-25T15:00:52.932Z,100.00
2018-08-25T15:02:20.241Z,100.00
2018-08-25T15:03:47.813Z,100.00
2018-08-25T15:05:11.138Z,100.00
2018-08-25T15:06:38.798Z,100.00
2018-08-25T15:08:09.537Z,100.00
2018-08-25T15:09:37.103Z,100.00
2018-08-25T15:11:00.551Z,100.00
2018-08-25T15:12:28.006Z,100.00
2018-08-25T15:13:55.650Z,100.00
2018-08-25T15:15:27.094Z,100.00
2018-08-25T15:16:53.754Z,100.00
2018-08-25T15:18:21.031Z,100.00
2018-08-25T15:19:48.433Z,100.00
2018-08-25T15:21:15.229Z,100.00
2018-08-25T15:22:37.675Z,100.00
2018-08-25T15:24:05.182Z,100.00
2018-08-25T15:25:32.160Z,100.00
2018-08-25T15:27:02.864Z,100.00
2018-08-25T15:28:26.056Z,100.00
2018-08-25T15:29:57.420Z,100.00
2018-08-25T15:31:24.778Z,100.00
2018-08-25T15:32:48.165Z,100.00
2018-08-25T15:34:15.596Z,100.00
2018-08-25T15:35:42.987Z,100.00
2018-08-25T15:37:10.376Z,100.00
2018-08-25T15:38:37.880Z,100.00
2018-08-25T15:40:08.402Z,100.00
2018-08-25T15:41:31.878Z,100.00
2018-08-25T15:43:03.169Z,100.00
2018-08-25T15:44:26.532Z,100.00
2018-08-25T15:45:53.954Z,100.00
2018-08-25T15:47:25.287Z,100.00
2018-08-25T15:48:52.449Z,100.00
2018-08-25T15:50:19.930Z,100.00
2018-08-25T15:51:43.192Z,100.00
2018-08-25T15:53:10.652Z,100.00
2018-08-25T15:54:38.082Z,100.00
2018-08-25T15:56:09.410Z,100.00
2018-08-25T15:57:32.813Z,100.00
2018-08-25T15:59:00.357Z,100.00
2018-08-25T16:00:31.750Z,100.00
2018-08-25T16:01:55.009Z,100.00
2018-08-25T16:03:26.359Z,100.00
2018-08-25T16:04:49.691Z,100.00
2018-08-25T16:06:21.303Z,100.00
2018-08-25T16:07:47.711Z,100.00
2018-08-25T16:09:14.402Z,100.00
2018-08-25T16:10:41.789Z,100.00
2018-08-25T16:12:04.630Z,100.00
2018-08-25T16:13:36.945Z,100.00
2018-08-25T16:15:02.629Z,100.00
2018-08-25T16:16:29.654Z,100.00
2018-08-25T16:17:52.930Z,100.00
2018-08-25T16:19:20.020Z,100.00
2018-08-25T16:20:51.400Z,100.00
2018-08-25T16:22:18.791Z,100.00
2018-08-25T16:23:42.154Z,100.00
2018-08-25T16:25:13.035Z,100.00
2018-08-25T16:26:36.277Z,100.00
2018-08-25T16:28:06.934Z,100.00
2018-08-25T16:29:30.347Z,100.00
2018-08-25T16:31:01.808Z,100.00
2018-08-25T16:32:24.902Z,100.00
2018-08-25T16:33:55.480Z,100.00
2018-08-25T16:35:18.805Z,100.00
2018-08-25T16:36:51.111Z,100.00
2018-08-25T16:38:17.610Z,100.00
2018-08-25T16:39:43.910Z,100.00
2018-08-25T16:41:11.198Z,100.00
2018-08-25T16:42:38.625Z,100.00
2018-08-25T16:44:05.921Z,100.00
2018-08-25T16:45:28.333Z,100.00
2018-08-25T16:46:59.742Z,100.00
2018-08-25T16:48:27.070Z,100.00
2018-08-25T16:49:54.476Z,100.00
2018-08-25T16:51:21.974Z,100.00
2018-08-25T16:52:48.573Z,100.00
2018-08-25T16:54:10.926Z,100.00
2018-08-25T16:55:41.595Z,100.00
2018-08-25T16:57:05.004Z,100.00
2018-08-25T16:58:31.516Z,100.00
2018-08-25T17:00:02.799Z,100.00
2018-08-25T17:01:30.284Z,100.00
2018-08-25T17:02:57.681Z,100.00
2018-08-25T17:04:21.296Z,100.00
2018-08-25T17:05:48.020Z,100.00
2018-08-25T17:07:14.383Z,100.00
2018-08-25T17:08:41.742Z,100.00
2018-08-25T17:10:09.377Z,100.00
2018-08-25T17:11:40.799Z,100.00
2018-08-25T17:13:08.198Z,100.00
2018-08-25T17:14:31.489Z,100.00
2018-08-25T17:16:01.962Z,100.00
2018-08-25T17:17:24.565Z,100.00
2018-08-25T17:18:55.535Z,100.00
2018-08-25T17:20:18.098Z,100.00
2018-08-25T17:21:45.436Z,100.00
2018-08-25T17:23:13.183Z,100.00
2018-08-25T17:24:39.569Z,100.00
2018-08-25T17:26:10.946Z,100.00
2018-08-25T17:27:33.814Z,100.00
2018-08-25T17:29:01.157Z,100.00
2018-08-25T17:30:28.713Z,100.00
2018-08-25T17:31:56.266Z,100.00
2018-08-25T17:33:27.344Z,100.00
2018-08-25T17:34:50.854Z,100.00
2018-08-25T17:36:18.170Z,100.00
2018-08-25T17:37:45.562Z,100.00
2018-08-25T17:39:16.991Z,100.00
2018-08-25T17:40:40.375Z,100.00
2018-08-25T17:42:11.935Z,100.00
2018-08-25T17:43:39.319Z,100.00
2018-08-25T17:45:06.093Z,100.00
2018-08-25T17:46:33.469Z,100.00
2018-08-25T17:48:00.469Z,100.00
2018-08-25T17:49:23.856Z,100.00
2018-08-25T17:50:55.400Z,100.00
2018-08-25T17:52:22.523Z,100.00
2018-08-25T17:53:45.959Z,100.00
2018-08-25T17:55:13.272Z,100.00
2018-08-25T17:56:44.956Z,100.00
2018-08-25T17:58:12.309Z,100.00
2018-08-25T17:59:39.658Z,100.00
2018-08-25T18:01:02.061Z,100.00
2018-08-25T18:02:28.768Z,100.00
2018-08-25T18:04:01.292Z,100.00
2018-08-25T18:05:22.733Z,100.00
2018-08-25T18:06:53.554Z,100.00
2018-08-25T18:08:21.026Z,100.00
2018-08-25T18:09:48.420Z,100.00
2018-08-25T18:11:15.881Z,100.00
2018-08-25T18:12:38.317Z,100.00
2018-08-25T18:14:09.834Z,100.00
2018-08-25T18:15:32.108Z,100.00
2018-08-25T18:17:03.424Z,100.00
2018-08-25T18:18:30.527Z,100.00
2018-08-25T18:19:54.877Z,100.00
2018-08-25T18:21:20.549Z,100.00
2018-08-25T18:22:52.134Z,100.00
2018-08-25T18:24:15.679Z,100.00
2018-08-25T18:25:46.994Z,100.00
2018-08-25T18:27:10.374Z,100.00
2018-08-25T18:28:37.892Z,100.00
2018-08-25T18:30:09.459Z,100.00
2018-08-25T18:31:32.675Z,100.00
2018-08-25T18:33:00.058Z,100.00
2018-08-25T18:34:27.520Z,100.00
2018-08-25T18:35:54.533Z,100.00
2018-08-25T18:37:21.866Z,100.00
2018-08-25T18:38:53.069Z,100.00
2018-08-25T18:40:20.420Z,100.00
2018-08-25T18:41:46.515Z,100.00
2018-08-25T18:43:14.105Z,100.00
2018-08-25T18:44:41.368Z,100.00
2018-08-25T18:46:08.901Z,100.00
2018-08-25T18:47:31.304Z,100.00
2018-08-25T18:48:58.741Z,100.00
2018-08-25T18:50:29.877Z,100.00
2018-08-25T18:51:52.930Z,100.00
2018-08-25T18:53:19.872Z,100.00
2018-08-25T18:54:51.302Z,100.00
2018-08-25T18:56:18.623Z,100.00
2018-08-25T18:57:41.976Z,100.00